Time;durP1;ratioP1;P1;durP2;ratioP2;P2;SDS_P1;SDS_P2;PMS_P1;PMS_P2;Temp;Humidity;BMP_temperature;BMP_pressure;BME280_temperature;BME280_humidity;BME280_pressure;Samples;Min_cycle;Max_cycle;Signal;HPM_P1;HPM_P2
2023/03/18 00:01:28;;;;;;;8.77;4.20;;;7.00;84.90;;;;;;7898251;28;20172;-86
2023/03/18 00:05:15;;;;;;;13.70;5.17;;;6.80;84.60;;;;;;7893661;28;20439;-88
2023/03/18 00:09:01;;;;;;;10.70;4.63;;;6.80;85.80;;;;;;7890197;28;20185;-87
2023/03/18 00:12:46;;;;;;;9.87;4.80;;;6.80;85.00;;;;;;7898503;28;20261;-87
2023/03/18 00:16:32;;;;;;;8.93;5.43;;;6.70;86.10;;;;;;7891126;28;20185;-87
2023/03/18 00:20:27;;;;;;;7.97;5.07;;;6.70;86.70;;;;;;7890531;28;20205;-87
2023/03/18 00:24:14;;;;;;;9.00;4.47;;;6.70;86.20;;;;;;7897480;28;20196;-87
2023/03/18 00:27:59;;;;;;;10.47;4.70;;;6.60;87.00;;;;;;7885279;28;20180;-87
2023/03/18 00:31:45;;;;;;;8.63;4.87;;;6.80;86.20;;;;;;7892575;28;20220;-87
2023/03/18 00:35:31;;;;;;;9.70;5.00;;;6.70;86.60;;;;;;7892302;28;20262;-87
2023/03/18 00:39:20;;;;;;;11.47;5.03;;;6.60;86.10;;;;;;7900570;28;20204;-87
2023/03/18 00:43:07;;;;;;;9.20;4.73;;;6.60;86.20;;;;;;7900068;28;20659;-87
2023/03/18 00:46:53;;;;;;;9.13;5.00;;;6.60;86.50;;;;;;7885049;28;20209;-87
2023/03/18 00:50:38;;;;;;;10.10;4.27;;;6.60;86.80;;;;;;7897055;28;20196;-87
2023/03/18 00:54:24;;;;;;;9.30;4.60;;;6.60;86.30;;;;;;7896083;28;20236;-86
2023/03/18 00:58:11;;;;;;;8.33;5.00;;;6.50;86.50;;;;;;7897577;28;20438;-87
2023/03/18 01:01:57;;;;;;;9.77;5.03;;;6.50;87.20;;;;;;7883200;28;20190;-87
2023/03/18 01:05:44;;;;;;;8.77;4.93;;;6.60;87.90;;;;;;7896979;28;20467;-87
2023/03/18 01:09:30;;;;;;;7.33;4.43;;;6.40;87.80;;;;;;7891349;28;20185;-87
2023/03/18 01:13:16;;;;;;;10.07;4.90;;;6.50;89.70;;;;;;7883282;28;20777;-87
2023/03/18 01:17:03;;;;;;;13.20;4.67;;;6.50;87.70;;;;;;7888538;28;20578;-87
2023/03/18 01:20:50;;;;;;;11.17;5.00;;;6.50;87.40;;;;;;7890441;28;20224;-88
2023/03/18 01:24:35;;;;;;;12.53;5.33;;;6.50;87.60;;;;;;7900241;28;20336;-87
2023/03/18 01:28:21;;;;;;;7.37;4.37;;;6.50;88.40;;;;;;7905034;28;20271;-86
2023/03/18 01:32:08;;;;;;;7.97;4.50;;;6.50;88.00;;;;;;7879833;28;20196;-87
2023/03/18 01:35:55;;;;;;;9.47;4.70;;;6.40;88.10;;;;;;7895342;28;20200;-86
2023/03/18 01:39:41;;;;;;;11.53;4.77;;;6.50;88.00;;;;;;7885888;28;20611;-87
2023/03/18 01:43:30;;;;;;;10.07;5.07;;;6.50;88.20;;;;;;7888387;28;20200;-87
2023/03/18 01:47:16;;;;;;;9.93;4.93;;;6.40;88.00;;;;;;7896845;28;20176;-87
2023/03/18 01:51:08;;;;;;;9.80;4.90;;;6.40;87.80;;;;;;7884667;28;20184;-86
2023/03/18 01:54:57;;;;;;;15.23;4.90;;;6.30;87.90;;;;;;7893965;28;20228;-85
2023/03/18 01:58:48;;;;;;;8.07;4.90;;;6.30;87.90;;;;;;7893304;28;20296;-87
2023/03/18 02:02:33;;;;;;;10.83;4.87;;;6.30;88.90;;;;;;7891017;28;20242;-86
2023/03/18 02:06:19;;;;;;;9.50;4.30;;;6.30;88.40;;;;;;7892085;28;20231;-86
2023/03/18 02:10:12;;;;;;;11.87;5.20;;;6.20;88.60;;;;;;7892918;28;20184;-87
2023/03/18 02:13:59;;;;;;;10.03;4.60;;;6.20;88.90;;;;;;7890173;28;20270;-87
2023/03/18 02:17:59;;;;;;;9.60;4.60;;;6.20;89.30;;;;;;7904669;28;20188;-87
2023/03/18 02:22:08;;;;;;;11.53;4.80;;;6.20;89.60;;;;;;7889154;28;20183;-87
2023/03/18 02:26:10;;;;;;;8.73;4.63;;;6.20;89.80;;;;;;7897396;28;20567;-87
2023/03/18 02:30:04;;;;;;;9.10;4.70;;;6.10;89.30;;;;;;7903527;28;20569;-86
2023/03/18 02:33:49;;;;;;;11.37;4.90;;;6.10;89.50;;;;;;7892459;28;20207;-86
2023/03/18 02:37:35;;;;;;;8.33;4.70;;;6.00;89.50;;;;;;7890876;28;20208;-87
2023/03/18 02:41:26;;;;;;;10.53;5.10;;;6.00;90.60;;;;;;7898406;28;20169;-86
2023/03/18 02:45:37;;;;;;;9.00;4.60;;;6.10;90.20;;;;;;7897914;28;20220;-87
2023/03/18 02:49:25;;;;;;;8.90;4.90;;;6.00;90.00;;;;;;7875162;28;20373;-87
2023/03/18 02:53:11;;;;;;;8.77;5.20;;;6.00;90.00;;;;;;7899759;28;20711;-87
2023/03/18 02:56:57;;;;;;;8.60;4.90;;;6.00;90.20;;;;;;7892055;28;20203;-87
2023/03/18 03:00:43;;;;;;;9.07;4.67;;;6.10;90.50;;;;;;7891766;28;20205;-87
2023/03/18 03:04:29;;;;;;;6.73;4.37;;;6.00;89.80;;;;;;7902214;28;20249;-88
2023/03/18 03:08:15;;;;;;;8.80;4.47;;;6.00;90.50;;;;;;7894743;28;20275;-87
2023/03/18 03:12:01;;;;;;;8.27;4.53;;;6.00;91.50;;;;;;7884912;28;20185;-87
2023/03/18 03:15:48;;;;;;;9.17;4.90;;;6.00;90.60;;;;;;7891018;28;20299;-87
2023/03/18 03:19:34;;;;;;;9.73;5.67;;;6.10;91.50;;;;;;7896892;28;20252;-87
2023/03/18 03:23:19;;;;;;;14.73;5.07;;;6.10;91.00;;;;;;7912927;28;20210;-87
2023/03/18 03:27:05;;;;;;;8.43;4.80;;;6.10;91.50;;;;;;7899912;28;20691;-87
2023/03/18 03:30:51;;;;;;;8.60;4.50;;;6.10;91.00;;;;;;7890466;28;20207;-85
2023/03/18 03:34:37;;;;;;;13.17;5.20;;;6.10;91.90;;;;;;7898678;28;20200;-87
2023/03/18 03:38:23;;;;;;;9.17;5.07;;;6.10;92.00;;;;;;7898568;28;20299;-87
2023/03/18 03:42:09;;;;;;;8.00;4.47;;;6.10;91.90;;;;;;7890942;28;20181;-87
2023/03/18 03:45:54;;;;;;;9.00;5.03;;;6.00;91.10;;;;;;7885574;28;20575;-88
2023/03/18 03:49:40;;;;;;;12.07;5.10;;;5.90;90.90;;;;;;7886543;28;20188;-87
2023/03/18 03:53:26;;;;;;;12.43;4.43;;;5.90;91.00;;;;;;7888955;28;20204;-87
2023/03/18 03:57:12;;;;;;;17.20;5.30;;;5.90;91.40;;;;;;7889885;28;20207;-86
2023/03/18 04:00:58;;;;;;;10.97;4.90;;;5.80;91.60;;;;;;7900785;28;20176;-86
2023/03/18 04:04:45;;;;;;;7.50;4.57;;;5.80;91.90;;;;;;7895610;28;20204;-87
2023/03/18 04:08:31;;;;;;;13.43;5.27;;;5.80;92.00;;;;;;7896719;28;20176;-87
2023/03/18 04:12:18;;;;;;;8.30;4.93;;;5.70;91.70;;;;;;7901317;28;20663;-86
2023/03/18 04:16:04;;;;;;;9.43;4.83;;;5.70;92.10;;;;;;7893318;28;20200;-86
2023/03/18 04:19:50;;;;;;;7.57;4.57;;;5.70;92.30;;;;;;7876896;28;20218;-85
2023/03/18 04:23:35;;;;;;;10.30;5.00;;;5.70;92.80;;;;;;7891278;28;20697;-85
2023/03/18 04:27:21;;;;;;;7.87;4.63;;;5.60;93.20;;;;;;7894463;28;20553;-87
2023/03/18 04:31:07;;;;;;;10.67;5.10;;;5.70;92.40;;;;;;7885050;28;20184;-87
2023/03/18 04:34:52;;;;;;;9.10;5.07;;;5.60;92.30;;;;;;7896449;28;20204;-86
2023/03/18 04:38:38;;;;;;;13.00;5.10;;;5.60;93.10;;;;;;7890512;28;20205;-85
2023/03/18 04:42:24;;;;;;;9.03;4.70;;;5.50;93.10;;;;;;7891781;28;20192;-86
2023/03/18 04:46:10;;;;;;;10.33;4.80;;;5.50;93.00;;;;;;7900421;28;20200;-86
2023/03/18 04:49:56;;;;;;;9.30;4.70;;;5.50;92.90;;;;;;7893446;28;20187;-86
2023/03/18 04:53:42;;;;;;;8.67;4.67;;;5.40;92.90;;;;;;7883190;28;20291;-85
2023/03/18 04:57:28;;;;;;;11.40;5.50;;;5.40;93.40;;;;;;7885157;28;20217;-86
2023/03/18 05:01:13;;;;;;;8.73;5.10;;;5.50;93.00;;;;;;7880545;28;20234;-87
2023/03/18 05:05:00;;;;;;;10.03;5.00;;;5.40;92.60;;;;;;7886856;28;20678;-84
2023/03/18 05:08:45;;;;;;;10.23;4.50;;;5.30;93.70;;;;;;7885446;28;20173;-85
2023/03/18 05:12:31;;;;;;;10.07;5.20;;;5.20;94.00;;;;;;7877172;28;20193;-86
2023/03/18 05:16:17;;;;;;;9.57;5.03;;;5.30;94.20;;;;;;7882110;28;20201;-86
2023/03/18 05:20:03;;;;;;;8.87;4.83;;;5.30;94.50;;;;;;7892716;28;20212;-84
2023/03/18 05:23:49;;;;;;;9.10;4.50;;;5.30;94.10;;;;;;7885204;28;20196;-86
2023/03/18 05:27:34;;;;;;;10.53;4.60;;;5.30;94.60;;;;;;7882048;28;20203;-85
2023/03/18 05:31:20;;;;;;;14.40;5.13;;;5.30;95.80;;;;;;7877006;28;20199;-85
2023/03/18 05:35:06;;;;;;;8.97;4.43;;;5.20;94.80;;;;;;7886907;28;20215;-87
2023/03/18 05:38:52;;;;;;;11.10;4.93;;;5.20;96.00;;;;;;7892634;28;20212;-86
2023/03/18 05:42:39;;;;;;;9.57;5.10;;;5.20;95.70;;;;;;7882839;28;20243;-85
2023/03/18 05:46:25;;;;;;;9.03;4.60;;;5.20;96.10;;;;;;7887867;28;20593;-84
2023/03/18 05:50:13;;;;;;;8.70;4.47;;;5.10;95.30;;;;;;7886108;28;20212;-84
2023/03/18 05:53:58;;;;;;;9.07;4.50;;;5.10;96.20;;;;;;7894901;28;20208;-86
2023/03/18 05:57:45;;;;;;;8.47;4.30;;;5.10;96.50;;;;;;7878313;28;20200;-81
2023/03/18 06:01:31;;;;;;;9.33;4.60;;;5.10;95.80;;;;;;7879520;28;20244;-87
2023/03/18 06:05:17;;;;;;;8.70;4.67;;;5.10;96.60;;;;;;7890464;28;20339;-90
2023/03/18 06:09:03;;;;;;;8.17;4.80;;;5.00;97.00;;;;;;7889568;28;20181;-88
2023/03/18 06:12:50;;;;;;;15.47;4.67;;;5.10;97.40;;;;;;7891755;28;20180;-86
2023/03/18 06:16:35;;;;;;;9.57;4.53;;;5.00;96.90;;;;;;7898545;28;20241;-86
2023/03/18 06:20:22;;;;;;;9.67;4.87;;;5.20;97.40;;;;;;7890466;28;20204;-87
2023/03/18 06:24:08;;;;;;;9.10;4.73;;;5.00;96.80;;;;;;7894430;28;20212;-85
2023/03/18 06:27:54;;;;;;;10.13;4.03;;;5.10;96.90;;;;;;7894897;28;20189;-86
2023/03/18 06:31:39;;;;;;;7.83;4.40;;;5.10;96.80;;;;;;7887677;28;20169;-85
2023/03/18 06:35:27;;;;;;;10.40;4.97;;;5.00;97.40;;;;;;7897336;28;20277;-86
2023/03/18 06:39:12;;;;;;;10.23;4.93;;;5.00;97.40;;;;;;7895786;28;20232;-86
2023/03/18 06:42:58;;;;;;;12.40;4.53;;;5.10;97.30;;;;;;7899219;28;20176;-85
2023/03/18 06:46:44;;;;;;;9.77;4.87;;;5.00;97.40;;;;;;7897058;28;20180;-85
2023/03/18 06:50:30;;;;;;;18.20;5.13;;;5.20;98.90;;;;;;7887770;28;20181;-85
2023/03/18 06:54:17;;;;;;;7.90;4.30;;;5.20;97.70;;;;;;7881076;28;20217;-85
2023/03/18 06:58:04;;;;;;;9.33;4.77;;;5.40;97.30;;;;;;7867567;28;20247;-85
2023/03/18 07:01:49;;;;;;;10.67;5.40;;;5.40;97.40;;;;;;7891960;28;20183;-86
2023/03/18 07:05:35;;;;;;;8.30;4.63;;;5.30;97.10;;;;;;7889991;28;20208;-86
2023/03/18 07:09:22;;;;;;;10.27;4.70;;;5.40;97.50;;;;;;7903296;28;20267;-87
2023/03/18 07:13:09;;;;;;;10.10;4.60;;;5.30;97.30;;;;;;7898593;28;20330;-88
2023/03/18 07:16:55;;;;;;;11.57;5.10;;;5.30;97.20;;;;;;7891145;28;20271;-82
2023/03/18 07:20:48;;;;;;;10.20;4.53;;;5.40;97.10;;;;;;7930367;28;20717;-89
2023/03/18 07:24:34;;;;;;;9.53;4.87;;;5.30;97.10;;;;;;7895005;28;20240;-84
2023/03/18 07:28:20;;;;;;;9.57;4.80;;;5.40;96.60;;;;;;7897338;28;20184;-88
2023/03/18 07:32:06;;;;;;;8.93;4.83;;;5.50;97.00;;;;;;7902410;28;20176;-86
2023/03/18 07:35:51;;;;;;;9.87;4.63;;;5.60;96.80;;;;;;7894233;28;20208;-88
2023/03/18 07:39:37;;;;;;;9.90;4.57;;;5.60;96.50;;;;;;7897443;28;20265;-87
2023/03/18 07:43:23;;;;;;;8.87;4.73;;;5.80;96.80;;;;;;7898394;28;20203;-86
2023/03/18 07:47:08;;;;;;;9.27;4.77;;;5.90;96.20;;;;;;7883459;28;20215;-87
2023/03/18 07:50:54;;;;;;;14.47;5.20;;;6.10;96.70;;;;;;7897488;28;20192;-91
2023/03/18 07:54:41;;;;;;;12.33;4.80;;;6.20;96.50;;;;;;7896993;28;20266;-90
2023/03/18 07:58:27;;;;;;;11.53;5.00;;;6.40;96.00;;;;;;7898364;28;20224;-86
2023/03/18 08:02:14;;;;;;;20.60;5.07;;;6.30;96.10;;;;;;7898310;28;20169;-86
2023/03/18 08:06:01;;;;;;;9.33;5.10;;;6.50;96.50;;;;;;7893671;28;20188;-83
2023/03/18 08:09:46;;;;;;;9.93;5.07;;;6.60;96.00;;;;;;7900670;28;20184;-85
2023/03/18 08:13:33;;;;;;;10.17;4.90;;;6.70;96.20;;;;;;7898117;28;20253;-90
2023/03/18 08:17:19;;;;;;;10.30;5.10;;;6.60;96.00;;;;;;7899803;28;20220;-83
2023/03/18 08:21:04;;;;;;;14.37;5.87;;;6.60;96.10;;;;;;7893931;28;20299;-85
2023/03/18 08:24:50;;;;;;;7.43;4.30;;;6.60;95.60;;;;;;7878059;28;20208;-85
2023/03/18 08:28:37;;;;;;;8.67;4.90;;;6.70;95.80;;;;;;7879461;28;20186;-87
2023/03/18 08:32:23;;;;;;;11.30;5.10;;;6.70;96.40;;;;;;7891263;28;20596;-85
2023/03/18 08:36:08;;;;;;;13.47;4.97;;;6.70;96.20;;;;;;7896938;28;20220;-85
2023/03/18 08:39:54;;;;;;;9.77;4.93;;;6.70;96.10;;;;;;7898229;28;20201;-86
2023/03/18 08:43:40;;;;;;;14.87;5.10;;;6.70;96.20;;;;;;7892836;28;20249;-83
2023/03/18 08:47:26;;;;;;;15.73;5.43;;;6.90;96.80;;;;;;7901459;28;20172;-85
2023/03/18 08:51:12;;;;;;;8.50;5.00;;;7.00;96.40;;;;;;7895984;28;20188;-84
2023/03/18 08:54:57;;;;;;;10.77;5.27;;;7.00;96.30;;;;;;7896794;28;20220;-86
2023/03/18 08:58:44;;;;;;;9.73;5.27;;;7.10;96.70;;;;;;7891862;28;20205;-86
2023/03/18 09:02:30;;;;;;;9.57;5.63;;;7.20;95.80;;;;;;7894113;28;20656;-87
2023/03/18 09:06:16;;;;;;;8.40;5.10;;;7.30;96.50;;;;;;7891905;28;20663;-87
2023/03/18 09:10:03;;;;;;;11.43;5.47;;;7.40;96.00;;;;;;7882143;28;20188;-87
2023/03/18 09:13:49;;;;;;;16.93;5.00;;;7.50;95.80;;;;;;7895788;28;20287;-84
2023/03/18 09:17:39;;;;;;;11.53;4.90;;;7.60;95.90;;;;;;7884550;28;20197;-84
2023/03/18 09:21:25;;;;;;;8.90;4.83;;;7.80;95.70;;;;;;7884681;28;20169;-87
2023/03/18 09:25:12;;;;;;;10.53;5.30;;;7.80;95.30;;;;;;7880386;28;20229;-87
2023/03/18 09:28:57;;;;;;;11.03;5.23;;;8.00;95.10;;;;;;7881759;28;20176;-87
2023/03/18 09:32:43;;;;;;;9.93;5.30;;;8.10;94.80;;;;;;7883982;28;20180;-85
2023/03/18 09:36:29;;;;;;;10.97;5.57;;;8.20;95.30;;;;;;7879415;28;20238;-87
2023/03/18 09:40:30;;;;;;;9.60;5.33;;;8.30;95.40;;;;;;7882275;28;20677;-86
2023/03/18 09:44:24;;;;;;;10.73;4.97;;;8.20;95.90;;;;;;7889919;28;20296;-82
2023/03/18 09:48:43;;;;;;;9.03;5.33;;;8.20;96.10;;;;;;7880978;28;20284;-87
2023/03/18 09:52:40;;;;;;;11.10;5.40;;;8.30;96.40;;;;;;7874593;28;20188;-89
2023/03/18 09:56:31;;;;;;;10.30;5.53;;;8.30;97.30;;;;;;7882262;28;20196;-86
2023/03/18 10:00:35;;;;;;;10.93;6.10;;;8.30;97.40;;;;;;7897607;28;20253;-87
2023/03/18 10:04:43;;;;;;;11.47;6.10;;;8.30;96.80;;;;;;7876922;28;20572;-86
2023/03/18 10:09:02;;;;;;;14.00;5.87;;;8.40;98.00;;;;;;7889667;28;20694;-86
2023/03/18 10:12:55;;;;;;;10.67;5.53;;;8.50;97.10;;;;;;7877714;28;20530;-87
2023/03/18 10:17:08;;;;;;;9.43;5.53;;;8.60;98.50;;;;;;7893544;28;20188;-88
2023/03/18 10:21:11;;;;;;;10.23;5.43;;;8.90;98.90;;;;;;7880858;28;20251;-87
2023/03/18 10:25:20;;;;;;;9.80;5.50;;;9.10;96.60;;;;;;7887957;28;20711;-87
2023/03/18 10:29:12;;;;;;;11.03;6.47;;;9.20;96.20;;;;;;7889445;28;20230;-88
2023/03/18 10:33:22;;;;;;;10.70;6.00;;;9.40;97.30;;;;;;7903164;28;20639;-87
2023/03/18 10:37:32;;;;;;;10.37;5.60;;;9.60;96.70;;;;;;7889980;28;20307;-87
2023/03/18 10:41:20;;;;;;;11.37;5.63;;;9.70;97.10;;;;;;7893674;28;20212;-87
2023/03/18 10:45:26;;;;;;;9.07;5.57;;;9.70;96.20;;;;;;7893542;28;20241;-89
2023/03/18 10:49:35;;;;;;;10.47;5.70;;;9.70;96.60;;;;;;7916784;28;20194;-92
2023/03/18 10:53:30;;;;;;;12.33;6.30;;;9.70;96.40;;;;;;7906285;28;20295;-87
2023/03/18 10:57:17;;;;;;;10.70;5.57;;;9.80;96.90;;;;;;7896962;28;20183;-85
2023/03/18 11:01:06;;;;;;;11.77;5.80;;;9.80;96.40;;;;;;7889626;28;20685;-87
2023/03/18 11:05:15;;;;;;;7.77;5.37;;;9.90;97.10;;;;;;7906564;28;20280;-84
2023/03/18 11:09:11;;;;;;;12.20;6.20;;;9.90;95.40;;;;;;7910755;28;20176;-85
2023/03/18 11:13:03;;;;;;;10.33;6.07;;;9.90;95.50;;;;;;7895421;28;20184;-87
2023/03/18 11:17:04;;;;;;;9.93;5.37;;;9.90;96.10;;;;;;7877677;28;20185;-83
2023/03/18 11:20:59;;;;;;;11.13;5.63;;;10.00;95.50;;;;;;7925603;28;20588;-84
2023/03/18 11:24:45;;;;;;;11.40;5.90;;;10.00;95.60;;;;;;7890335;28;22036;-86
2023/03/18 11:28:32;;;;;;;9.80;5.80;;;10.00;95.30;;;;;;7894434;28;20661;-89
2023/03/18 11:32:35;;;;;;;12.37;6.07;;;10.00;95.40;;;;;;7904480;28;20173;-88
2023/03/18 11:36:22;;;;;;;14.80;8.43;;;10.10;95.50;;;;;;7899756;28;20216;-87
2023/03/18 11:40:17;;;;;;;14.50;7.83;;;10.10;95.10;;;;;;7892138;28;20714;-88
2023/03/18 11:44:06;;;;;;;15.60;7.90;;;10.20;94.80;;;;;;7882747;28;20196;-86
2023/03/18 11:47:53;;;;;;;15.70;7.73;;;10.20;96.40;;;;;;7882412;28;20237;-87
2023/03/18 11:52:05;;;;;;;11.03;6.30;;;10.30;95.20;;;;;;7899110;28;20181;-87
2023/03/18 11:56:15;;;;;;;13.93;7.23;;;10.30;94.60;;;;;;7882348;28;20551;-87
2023/03/18 12:00:20;;;;;;;13.70;6.37;;;10.30;94.40;;;;;;7892934;28;20201;-87
2023/03/18 12:04:21;;;;;;;12.00;6.37;;;10.30;94.40;;;;;;7893499;28;20196;-89
2023/03/18 12:08:37;;;;;;;13.67;6.60;;;10.30;94.60;;;;;;7886491;28;20271;-88
2023/03/18 12:12:58;;;;;;;9.37;5.93;;;10.30;95.20;;;;;;7885724;28;20252;-88
2023/03/18 12:17:12;;;;;;;10.13;6.20;;;10.30;94.90;;;;;;7892351;28;20238;-89
2023/03/18 12:21:28;;;;;;;9.73;6.33;;;10.40;95.20;;;;;;7891293;28;20781;-88
2023/03/18 12:25:31;;;;;;;10.00;6.53;;;10.50;95.60;;;;;;7893762;28;20201;-88
2023/03/18 12:29:27;;;;;;;11.43;6.30;;;10.50;94.80;;;;;;7889701;28;20672;-89
2023/03/18 12:33:22;;;;;;;15.07;7.40;;;10.60;95.00;;;;;;7878673;28;20205;-88
2023/03/18 12:37:49;;;;;;;11.97;6.00;;;10.60;94.90;;;;;;7895288;28;20195;-87
2023/03/18 12:41:51;;;;;;;13.00;7.13;;;10.60;94.60;;;;;;7883116;28;20204;-87
2023/03/18 12:45:41;;;;;;;12.50;6.90;;;10.70;94.90;;;;;;7881065;28;20196;-88
2023/03/18 12:49:53;;;;;;;12.43;6.80;;;10.70;94.80;;;;;;7884133;28;20173;-87
2023/03/18 12:53:46;;;;;;;10.23;6.10;;;10.70;93.90;;;;;;7890853;28;20215;-86
2023/03/18 12:57:47;;;;;;;13.47;7.00;;;10.80;95.20;;;;;;7895554;28;20193;-85
2023/03/18 13:01:48;;;;;;;13.03;7.13;;;10.80;94.70;;;;;;7885367;28;20688;-87
